Time;durP1;ratioP1;P1;durP2;ratioP2;P2;SDS_P1;SDS_P2;PMS_P1;PMS_P2;Temp;Humidity;BMP_temperature;BMP_pressure;BME280_temperature;BME280_humidity;BME280_pressure;Samples;Min_cycle;Max_cycle;Signal;HPM_P1;HPM_P2
2023/12/15 00:00:25;;;;;;;11.85;6.80;;;;;;;;;;5043657;28;20048;-67
2023/12/15 00:02:50;;;;;;;7.13;4.70;;;;;;;;;;5043013;28;20072;-66
2023/12/15 00:05:16;;;;;;;4.88;4.25;;;;;;;;;;5041235;28;20067;-64
2023/12/15 00:07:42;;;;;;;13.63;7.90;;;;;;;;;;5043875;28;20048;-66
2023/12/15 00:10:07;;;;;;;8.95;5.47;;;;;;;;;;5043507;28;20049;-67
2023/12/15 00:12:33;;;;;;;8.68;6.10;;;;;;;;;;5042895;28;20048;-67
2023/12/15 00:14:58;;;;;;;8.07;5.45;;;;;;;;;;5043226;28;20048;-67
2023/12/15 00:17:24;;;;;;;9.60;5.47;;;;;;;;;;5043131;28;20132;-67
2023/12/15 00:19:49;;;;;;;9.05;6.47;;;;;;;;;;5043859;28;20106;-68
2023/12/15 00:22:14;;;;;;;9.43;6.05;;;;;;;;;;5042767;28;20049;-66
2023/12/15 00:24:40;;;;;;;6.55;4.60;;;;;;;;;;5043071;28;20049;-67
2023/12/15 00:27:05;;;;;;;10.10;6.25;;;;;;;;;;5043240;28;20037;-65
2023/12/15 00:29:30;;;;;;;10.85;6.40;;;;;;;;;;5039716;28;20130;-66
2023/12/15 00:31:56;;;;;;;7.72;5.88;;;;;;;;;;5039970;28;20136;-65
2023/12/15 00:34:21;;;;;;;6.35;4.93;;;;;;;;;;5039672;28;20040;-67
2023/12/15 00:36:47;;;;;;;9.35;6.10;;;;;;;;;;5040576;28;20044;-67
2023/12/15 00:39:12;;;;;;;9.38;5.97;;;;;;;;;;5039418;28;20037;-65
2023/12/15 00:41:37;;;;;;;8.15;5.28;;;;;;;;;;5040223;28;20053;-66
2023/12/15 00:44:03;;;;;;;3.13;2.80;;;;;;;;;;5037917;28;20132;-64
2023/12/15 00:46:29;;;;;;;3.25;2.75;;;;;;;;;;5049906;28;20070;-67
2023/12/15 00:48:54;;;;;;;6.13;4.25;;;;;;;;;;5032000;28;20227;-64
2023/12/15 00:51:20;;;;;;;5.32;3.30;;;;;;;;;;5002764;28;20052;-67
2023/12/15 00:53:45;;;;;;;5.22;4.10;;;;;;;;;;5021026;28;20053;-65
2023/12/15 00:56:11;;;;;;;11.75;6.07;;;;;;;;;;5021009;28;20049;-66
2023/12/15 00:58:36;;;;;;;10.40;6.43;;;;;;;;;;5020277;28;20041;-65
2023/12/15 01:01:02;;;;;;;9.48;5.07;;;;;;;;;;5020669;28;20052;-66
2023/12/15 01:03:30;;;;;;;10.07;5.40;;;;;;;;;;5019769;28;20044;-66
2023/12/15 01:05:55;;;;;;;6.22;4.65;;;;;;;;;;5023613;28;20061;-64
2023/12/15 01:08:21;;;;;;;7.28;5.18;;;;;;;;;;5026005;28;20038;-67
2023/12/15 01:10:47;;;;;;;6.07;3.88;;;;;;;;;;5022820;28;20948;-66
2023/12/15 01:13:12;;;;;;;10.85;6.50;;;;;;;;;;5020052;28;20052;-66
2023/12/15 01:15:37;;;;;;;10.40;5.20;;;;;;;;;;5020465;28;20088;-67
2023/12/15 01:18:03;;;;;;;7.97;5.47;;;;;;;;;;5022046;28;20389;-67
2023/12/15 01:20:28;;;;;;;6.90;4.30;;;;;;;;;;5020381;28;20072;-67
2023/12/15 01:22:53;;;;;;;7.70;5.93;;;;;;;;;;5036008;28;20076;-67
2023/12/15 01:25:19;;;;;;;10.32;6.63;;;;;;;;;;5036002;28;20090;-67
2023/12/15 01:27:44;;;;;;;14.32;7.15;;;;;;;;;;5037797;28;20151;-67
2023/12/15 01:30:10;;;;;;;13.82;7.20;;;;;;;;;;5038116;28;20057;-67
2023/12/15 01:32:35;;;;;;;4.50;3.88;;;;;;;;;;5039166;28;20052;-68
2023/12/15 01:35:01;;;;;;;11.48;6.50;;;;;;;;;;5038472;28;20044;-67
2023/12/15 01:37:26;;;;;;;13.82;6.82;;;;;;;;;;5038609;28;20048;-68
2023/12/15 01:39:52;;;;;;;5.65;5.10;;;;;;;;;;5036582;28;20045;-67
2023/12/15 01:42:17;;;;;;;6.88;4.82;;;;;;;;;;5038337;28;20139;-68
2023/12/15 01:44:43;;;;;;;10.40;6.13;;;;;;;;;;5038443;28;20036;-68
2023/12/15 01:47:13;;;;;;;7.78;5.32;;;;;;;;;;5038500;28;20049;-67
2023/12/15 01:49:39;;;;;;;9.18;4.90;;;;;;;;;;5038598;28;20113;-67
2023/12/15 01:52:05;;;;;;;8.07;5.03;;;;;;;;;;5037437;28;20507;-66
2023/12/15 01:54:30;;;;;;;6.25;4.40;;;;;;;;;;5037044;28;20045;-66
2023/12/15 01:56:56;;;;;;;6.00;3.83;;;;;;;;;;5038618;28;20070;-67
2023/12/15 01:59:21;;;;;;;4.25;2.63;;;;;;;;;;5037551;28;20070;-68
2023/12/15 02:01:46;;;;;;;5.45;4.32;;;;;;;;;;5037704;28;20060;-67
2023/12/15 02:04:12;;;;;;;6.97;4.47;;;;;;;;;;5037865;28;20061;-67
2023/12/15 02:06:38;;;;;;;5.88;4.20;;;;;;;;;;5037951;28;20044;-65
2023/12/15 02:09:03;;;;;;;4.55;3.38;;;;;;;;;;5038058;28;20053;-64
2023/12/15 02:11:28;;;;;;;8.95;4.82;;;;;;;;;;5037507;28;20525;-67
2023/12/15 02:13:54;;;;;;;5.82;4.22;;;;;;;;;;5037456;28;20056;-65
2023/12/15 02:16:19;;;;;;;5.50;3.63;;;;;;;;;;5036440;28;20059;-66
2023/12/15 02:18:45;;;;;;;7.32;4.60;;;;;;;;;;5038391;28;20144;-65
2023/12/15 02:21:10;;;;;;;5.22;3.90;;;;;;;;;;5037656;28;20057;-67
2023/12/15 02:23:37;;;;;;;6.65;3.85;;;;;;;;;;5036905;28;20075;-67
2023/12/15 02:26:03;;;;;;;4.30;2.53;;;;;;;;;;5037552;28;20156;-67
2023/12/15 02:28:28;;;;;;;2.70;2.50;;;;;;;;;;5037882;28;20519;-67
2023/12/15 02:30:53;;;;;;;4.22;3.50;;;;;;;;;;5038096;28;20598;-66
2023/12/15 02:33:19;;;;;;;6.22;4.25;;;;;;;;;;5036636;28;20045;-67
2023/12/15 02:35:47;;;;;;;4.65;3.03;;;;;;;;;;5037190;28;20071;-63
2023/12/15 02:38:18;;;;;;;3.45;2.80;;;;;;;;;;5037394;28;20091;-66
2023/12/15 02:40:44;;;;;;;2.55;2.08;;;;;;;;;;5038038;28;20495;-67
2023/12/15 02:43:10;;;;;;;4.88;3.35;;;;;;;;;;5037208;28;20478;-67
2023/12/15 02:45:36;;;;;;;5.30;3.58;;;;;;;;;;5036421;28;20060;-68
2023/12/15 02:48:03;;;;;;;7.80;4.40;;;;;;;;;;5037853;28;20052;-66
2023/12/15 02:50:28;;;;;;;3.88;2.17;;;;;;;;;;5037804;28;20557;-67
2023/12/15 02:52:53;;;;;;;7.90;4.35;;;;;;;;;;5037146;28;20053;-66
2023/12/15 02:55:19;;;;;;;4.57;3.78;;;;;;;;;;5036499;28;20064;-66
2023/12/15 02:57:44;;;;;;;6.32;3.95;;;;;;;;;;5036962;28;20561;-67
2023/12/15 03:00:10;;;;;;;7.07;4.20;;;;;;;;;;5037035;28;20057;-67
2023/12/15 03:02:36;;;;;;;4.93;3.38;;;;;;;;;;5037646;28;20098;-67
2023/12/15 03:05:01;;;;;;;6.70;4.18;;;;;;;;;;5036916;28;20041;-66
2023/12/15 03:07:26;;;;;;;7.05;4.13;;;;;;;;;;5034651;28;20116;-67
2023/12/15 03:09:52;;;;;;;6.53;4.28;;;;;;;;;;5037529;28;20941;-66
2023/12/15 03:12:17;;;;;;;6.55;4.38;;;;;;;;;;5037147;28;20040;-67
2023/12/15 03:14:42;;;;;;;7.30;4.38;;;;;;;;;;5037070;28;20155;-67
2023/12/15 03:17:08;;;;;;;5.53;3.53;;;;;;;;;;5037291;28;20099;-66
2023/12/15 03:19:33;;;;;;;7.28;4.95;;;;;;;;;;5036156;28;20630;-67
2023/12/15 03:21:58;;;;;;;5.60;3.65;;;;;;;;;;5037501;28;20094;-68
2023/12/15 03:24:24;;;;;;;5.90;4.25;;;;;;;;;;5036392;28;20052;-68
2023/12/15 03:26:49;;;;;;;6.00;4.53;;;;;;;;;;5035965;28;20395;-67
2023/12/15 03:29:15;;;;;;;6.18;4.35;;;;;;;;;;5035465;28;20058;-67
2023/12/15 03:31:43;;;;;;;5.15;4.13;;;;;;;;;;5037295;28;20037;-66
2023/12/15 03:34:09;;;;;;;5.70;4.22;;;;;;;;;;5035155;28;20155;-66
2023/12/15 03:36:38;;;;;;;5.75;4.30;;;;;;;;;;5037322;28;20113;-67
2023/12/15 03:39:08;;;;;;;6.28;4.18;;;;;;;;;;5035810;28;20053;-68
2023/12/15 03:41:34;;;;;;;9.50;4.95;;;;;;;;;;5035886;28;20057;-67
2023/12/15 03:44:00;;;;;;;6.40;4.93;;;;;;;;;;5036883;28;20057;-67
2023/12/15 03:46:25;;;;;;;7.13;4.22;;;;;;;;;;5036516;28;20119;-66
2023/12/15 03:48:50;;;;;;;8.77;4.90;;;;;;;;;;5037538;28;20128;-68
2023/12/15 03:51:16;;;;;;;8.27;4.53;;;;;;;;;;5035432;28;20502;-66
2023/12/15 03:53:41;;;;;;;6.55;5.03;;;;;;;;;;5037326;28;20048;-68
2023/12/15 03:56:07;;;;;;;8.40;5.03;;;;;;;;;;5036525;28;20565;-65
2023/12/15 03:58:33;;;;;;;11.82;6.25;;;;;;;;;;5036906;28;20041;-64
2023/12/15 04:00:58;;;;;;;9.35;5.45;;;;;;;;;;5035592;28;20728;-67
2023/12/15 04:03:24;;;;;;;10.38;6.10;;;;;;;;;;5035436;28;20049;-67
2023/12/15 04:05:50;;;;;;;5.20;4.03;;;;;;;;;;5038869;28;20047;-66
2023/12/15 04:08:15;;;;;;;11.23;6.55;;;;;;;;;;5040544;28;20091;-65
2023/12/15 04:10:41;;;;;;;11.38;7.15;;;;;;;;;;5040847;28;20131;-66
2023/12/15 04:13:06;;;;;;;9.35;5.85;;;;;;;;;;5035858;28;20047;-65
2023/12/15 04:15:32;;;;;;;7.63;5.15;;;;;;;;;;5038725;28;20052;-67
2023/12/15 04:17:57;;;;;;;11.75;6.00;;;;;;;;;;5040919;28;20049;-67
2023/12/15 04:20:22;;;;;;;12.90;7.25;;;;;;;;;;5040334;28;20079;-67
2023/12/15 04:22:48;;;;;;;10.02;6.15;;;;;;;;;;5040931;28;20037;-67
2023/12/15 04:25:14;;;;;;;6.97;4.22;;;;;;;;;;5038892;28;20045;-65
2023/12/15 04:27:39;;;;;;;17.45;6.10;;;;;;;;;;5040546;28;20049;-65
2023/12/15 04:30:05;;;;;;;10.10;6.15;;;;;;;;;;5040259;28;20044;-66
2023/12/15 04:32:31;;;;;;;8.07;4.88;;;;;;;;;;5038399;28;20049;-65
2023/12/15 04:34:56;;;;;;;8.90;5.55;;;;;;;;;;5040031;28;20418;-67
2023/12/15 04:37:21;;;;;;;5.05;4.00;;;;;;;;;;5038610;28;20044;-67
2023/12/15 04:39:47;;;;;;;6.05;4.13;;;;;;;;;;5040502;28;20056;-67
2023/12/15 04:42:13;;;;;;;7.45;5.05;;;;;;;;;;5039166;28;20140;-65
2023/12/15 04:44:38;;;;;;;6.00;3.83;;;;;;;;;;5039831;28;20055;-67
2023/12/15 04:47:04;;;;;;;8.57;5.15;;;;;;;;;;5039378;28;20911;-66
2023/12/15 04:49:29;;;;;;;6.55;4.13;;;;;;;;;;5039197;28;20087;-68
2023/12/15 04:51:55;;;;;;;8.15;4.65;;;;;;;;;;5039940;28;20045;-67
2023/12/15 04:54:21;;;;;;;7.60;4.82;;;;;;;;;;5037659;28;20057;-67
2023/12/15 04:56:46;;;;;;;5.78;4.15;;;;;;;;;;5039293;28;20106;-66
2023/12/15 04:59:12;;;;;;;5.05;4.45;;;;;;;;;;5039201;28;20136;-68
2023/12/15 05:01:37;;;;;;;6.28;4.30;;;;;;;;;;5057969;28;20628;-67
2023/12/15 05:04:03;;;;;;;7.35;4.50;;;;;;;;;;5059231;28;20044;-67
2023/12/15 05:06:28;;;;;;;6.97;4.63;;;;;;;;;;5058801;28;20098;-67
2023/12/15 05:08:55;;;;;;;5.53;3.97;;;;;;;;;;5058780;28;20052;-68
2023/12/15 05:11:20;;;;;;;5.43;4.30;;;;;;;;;;5056978;28;20048;-68
2023/12/15 05:13:46;;;;;;;6.43;4.63;;;;;;;;;;5058724;28;20047;-68
2023/12/15 05:16:11;;;;;;;5.20;3.78;;;;;;;;;;5058107;28;20041;-67
2023/12/15 05:18:37;;;;;;;5.25;4.25;;;;;;;;;;5039800;28;20686;-66
2023/12/15 05:21:04;;;;;;;6.68;4.25;;;;;;;;;;5058195;28;20070;-67
2023/12/15 05:23:29;;;;;;;5.95;4.05;;;;;;;;;;5057897;28;20044;-68
2023/12/15 05:25:55;;;;;;;6.65;4.68;;;;;;;;;;5059095;28;20071;-65
2023/12/15 05:28:21;;;;;;;4.82;3.75;;;;;;;;;;5058082;28;20131;-67
2023/12/15 05:30:46;;;;;;;5.40;3.70;;;;;;;;;;5057650;28;20041;-65
2023/12/15 05:33:12;;;;;;;4.30;3.45;;;;;;;;;;5056662;28;20059;-68
2023/12/15 05:35:37;;;;;;;6.10;4.03;;;;;;;;;;5057148;28;20171;-64
2023/12/15 05:38:03;;;;;;;7.28;4.90;;;;;;;;;;5058771;28;20044;-67
2023/12/15 05:40:29;;;;;;;6.75;4.32;;;;;;;;;;5022709;28;20597;-67
2023/12/15 05:42:54;;;;;;;3.58;3.08;;;;;;;;;;5058187;28;20052;-67
2023/12/15 05:45:20;;;;;;;4.15;3.60;;;;;;;;;;5057386;28;20506;-67
2023/12/15 05:47:46;;;;;;;4.90;3.85;;;;;;;;;;5057887;28;20079;-65
2023/12/15 05:50:12;;;;;;;6.13;4.32;;;;;;;;;;5058813;28;20099;-65
2023/12/15 05:52:37;;;;;;;5.75;4.43;;;;;;;;;;5056787;28;20566;-65
2023/12/15 05:55:03;;;;;;;6.20;3.80;;;;;;;;;;5058594;28;20042;-67
2023/12/15 05:57:29;;;;;;;5.65;4.00;;;;;;;;;;5037523;28;20102;-66
2023/12/15 05:59:54;;;;;;;6.28;4.32;;;;;;;;;;5056290;28;20052;-69
2023/12/15 06:02:19;;;;;;;4.45;3.60;;;;;;;;;;5057445;28;20039;-66
2023/12/15 06:04:45;;;;;;;4.55;3.05;;;;;;;;;;5056893;28;20036;-69
2023/12/15 06:07:10;;;;;;;6.82;3.92;;;;;;;;;;5057545;28;20059;-69
2023/12/15 06:09:36;;;;;;;2.97;2.45;;;;;;;;;;5056246;28;20840;-68
2023/12/15 06:12:03;;;;;;;4.15;3.20;;;;;;;;;;5052093;28;20059;-67
2023/12/15 06:14:28;;;;;;;4.72;3.53;;;;;;;;;;5052482;28;20053;-66
2023/12/15 06:16:54;;;;;;;4.68;3.90;;;;;;;;;;5054917;28;20056;-67
2023/12/15 06:19:19;;;;;;;5.63;4.40;;;;;;;;;;5053787;28;20062;-69
2023/12/15 06:21:45;;;;;;;8.88;3.88;;;;;;;;;;5052357;28;20094;-70
2023/12/15 06:24:10;;;;;;;5.63;3.95;;;;;;;;;;5054775;28;20059;-68
2023/12/15 06:26:35;;;;;;;9.02;5.10;;;;;;;;;;5054824;28;20049;-69
2023/12/15 06:29:01;;;;;;;6.65;4.32;;;;;;;;;;5057564;28;20485;-66
2023/12/15 06:31:27;;;;;;;7.07;4.22;;;;;;;;;;5039038;28;20525;-65
2023/12/15 06:33:53;;;;;;;5.28;3.88;;;;;;;;;;5057394;28;20044;-67
2023/12/15 06:36:18;;;;;;;11.45;4.40;;;;;;;;;;5038204;28;20052;-69
2023/12/15 06:38:44;;;;;;;5.63;3.95;;;;;;;;;;5057193;28;20049;-67
2023/12/15 06:41:13;;;;;;;4.35;3.85;;;;;;;;;;5057601;28;20886;-69
2023/12/15 06:43:42;;;;;;;6.25;4.20;;;;;;;;;;5056362;28;20059;-68
2023/12/15 06:46:08;;;;;;;6.75;3.83;;;;;;;;;;5056417;28;20044;-66
2023/12/15 06:48:34;;;;;;;5.40;3.83;;;;;;;;;;5055431;28;20052;-67
2023/12/15 06:51:00;;;;;;;15.38;4.45;;;;;;;;;;5056409;28;20110;-67
2023/12/15 06:53:25;;;;;;;9.10;4.03;;;;;;;;;;5055261;28;20675;-69
2023/12/15 06:55:51;;;;;;;9.35;4.22;;;;;;;;;;5056405;28;20159;-69
2023/12/15 06:58:16;;;;;;;5.72;3.15;;;;;;;;;;5055722;28;20041;-69
2023/12/15 07:00:42;;;;;;;8.88;4.82;;;;;;;;;;5056380;28;20068;-69
2023/12/15 07:03:08;;;;;;;7.82;3.92;;;;;;;;;;5056640;28;20048;-69
2023/12/15 07:05:34;;;;;;;7.43;4.90;;;;;;;;;;5055907;28;20064;-67
2023/12/15 07:08:01;;;;;;;7.20;4.80;;;;;;;;;;5057491;28;20097;-69
2023/12/15 07:10:26;;;;;;;9.45;5.07;;;;;;;;;;5056072;28;20051;-69
2023/12/15 07:12:51;;;;;;;6.22;3.20;;;;;;;;;;5057212;28;20041;-68
2023/12/15 07:15:17;;;;;;;7.97;5.22;;;;;;;;;;5056261;28;20117;-68
2023/12/15 07:17:42;;;;;;;8.10;4.95;;;;;;;;;;5056792;28;20455;-70
2023/12/15 07:20:11;;;;;;;7.10;4.15;;;;;;;;;;5056945;28;20045;-68
2023/12/15 07:22:36;;;;;;;7.85;4.75;;;;;;;;;;5056221;28;20040;-70
2023/12/15 07:25:02;;;;;;;10.18;5.40;;;;;;;;;;5056737;28;20113;-68
2023/12/15 07:27:27;;;;;;;10.95;5.45;;;;;;;;;;5055965;28;20058;-69
2023/12/15 07:29:53;;;;;;;8.80;5.65;;;;;;;;;;5057035;28;20041;-68
2023/12/15 07:32:18;;;;;;;9.65;5.60;;;;;;;;;;5056253;28;20051;-69
2023/12/15 07:34:44;;;;;;;8.55;5.00;;;;;;;;;;5056518;28;21000;-68
2023/12/15 07:37:10;;;;;;;7.95;5.00;;;;;;;;;;5057218;28;20411;-69
2023/12/15 07:39:38;;;;;;;11.95;6.72;;;;;;;;;;5057726;28;20133;-68
2023/12/15 07:42:04;;;;;;;11.40;6.45;;;;;;;;;;5061244;28;20123;-69
2023/12/15 07:44:29;;;;;;;11.23;6.07;;;;;;;;;;5059703;28;20131;-69
2023/12/15 07:46:55;;;;;;;12.57;6.45;;;;;;;;;;5061083;28;20055;-67
2023/12/15 07:49:24;;;;;;;11.07;6.63;;;;;;;;;;5060467;28;20144;-69
2023/12/15 07:51:50;;;;;;;6.68;4.38;;;;;;;;;;5060353;28;20538;-69
2023/12/15 07:54:18;;;;;;;7.07;4.63;;;;;;;;;;5059906;28;20435;-69
2023/12/15 07:56:43;;;;;;;13.05;6.82;;;;;;;;;;5060456;28;20102;-68
2023/12/15 07:59:10;;;;;;;11.13;6.68;;;;;;;;;;5060513;28;20044;-68
2023/12/15 08:01:36;;;;;;;13.00;7.28;;;;;;;;;;5059415;28;20102;-67
2023/12/15 08:04:01;;;;;;;13.50;7.28;;;;;;;;;;5060145;28;20044;-68
2023/12/15 08:06:27;;;;;;;11.75;7.15;;;;;;;;;;5059691;28;20480;-67
2023/12/15 08:08:53;;;;;;;10.38;6.25;;;;;;;;;;5060075;28;20048;-68
2023/12/15 08:11:19;;;;;;;12.27;6.93;;;;;;;;;;5059007;28;20056;-64
2023/12/15 08:13:45;;;;;;;11.43;6.95;;;;;;;;;;5059887;28;20116;-65
2023/12/15 08:16:11;;;;;;;11.23;6.47;;;;;;;;;;5059261;28;20044;-66
2023/12/15 08:18:37;;;;;;;12.13;6.07;;;;;;;;;;5059813;28;20064;-66
2023/12/15 08:21:03;;;;;;;12.90;7.72;;;;;;;;;;5060263;28;20486;-66
2023/12/15 08:23:28;;;;;;;13.35;6.97;;;;;;;;;;5059215;28;20059;-65
2023/12/15 08:25:54;;;;;;;17.45;8.35;;;;;;;;;;5059715;28;20114;-66
2023/12/15 08:28:20;;;;;;;14.43;7.40;;;;;;;;;;5059571;28;20048;-66
2023/12/15 08:30:50;;;;;;;13.95;7.68;;;;;;;;;;5024792;28;20032;-67
2023/12/15 08:33:16;;;;;;;19.58;9.07;;;;;;;;;;5059109;28;20086;-67
2023/12/15 08:35:41;;;;;;;11.30;6.78;;;;;;;;;;5059400;28;20056;-67
2023/12/15 08:38:07;;;;;;;12.20;7.47;;;;;;;;;;5059335;28;20044;-67
2023/12/15 08:40:32;;;;;;;11.82;6.78;;;;;;;;;;5059299;28;20056;-66
2023/12/15 08:42:58;;;;;;;10.98;6.15;;;;;;;;;;5060158;28;20040;-65
2023/12/15 08:45:23;;;;;;;10.35;6.07;;;;;;;;;;5058789;28;20048;-67
2023/12/15 08:47:49;;;;;;;10.00;5.65;;;;;;;;;;5059511;28;20454;-65
2023/12/15 08:50:15;;;;;;;8.20;5.40;;;;;;;;;;5058396;28;20040;-67
2023/12/15 08:52:40;;;;;;;12.27;5.80;;;;;;;;;;5058580;28;20653;-67
2023/12/15 08:55:06;;;;;;;7.82;5.70;;;;;;;;;;5041150;28;20040;-66
2023/12/15 08:57:32;;;;;;;8.55;5.15;;;;;;;;;;5059259;28;20057;-67
2023/12/15 08:59:58;;;;;;;7.35;5.07;;;;;;;;;;5058442;28;20044;-67
2023/12/15 09:02:24;;;;;;;7.50;4.82;;;;;;;;;;5059391;28;20052;-67
2023/12/15 09:04:50;;;;;;;9.13;5.60;;;;;;;;;;5059009;28;20197;-66
2023/12/15 09:07:15;;;;;;;9.20;5.57;;;;;;;;;;5058510;28;20036;-66
2023/12/15 09:09:41;;;;;;;11.45;6.93;;;;;;;;;;5059266;28;20045;-67
2023/12/15 09:12:06;;;;;;;12.18;6.75;;;;;;;;;;5058444;28;20040;-68
2023/12/15 09:14:32;;;;;;;10.25;6.47;;;;;;;;;;5059130;28;20037;-67
2023/12/15 09:16:58;;;;;;;10.30;6.38;;;;;;;;;;5058912;28;20135;-68
2023/12/15 09:19:25;;;;;;;9.13;6.00;;;;;;;;;;5058754;28;20632;-67
2023/12/15 09:21:51;;;;;;;11.20;5.95;;;;;;;;;;5057791;28;20415;-67
2023/12/15 09:24:17;;;;;;;10.18;6.10;;;;;;;;;;5058970;28;20048;-68
2023/12/15 09:26:44;;;;;;;13.30;6.90;;;;;;;;;;5058859;28;20587;-67
2023/12/15 09:29:10;;;;;;;9.32;5.80;;;;;;;;;;5059724;28;20048;-67
2023/12/15 09:31:36;;;;;;;10.65;6.60;;;;;;;;;;5058451;28;20109;-68
2023/12/15 09:34:02;;;;;;;11.30;6.05;;;;;;;;;;5057570;28;20140;-67
2023/12/15 09:36:27;;;;;;;11.15;7.40;;;;;;;;;;5059012;28;20147;-67
2023/12/15 09:38:53;;;;;;;11.13;7.00;;;;;;;;;;5058693;28;20048;-68
2023/12/15 09:41:19;;;;;;;13.88;7.75;;;;;;;;;;5058443;28;20051;-67
2023/12/15 09:43:44;;;;;;;15.40;7.72;;;;;;;;;;5057482;28;20040;-68
2023/12/15 09:46:11;;;;;;;12.52;7.57;;;;;;;;;;5058338;28;20292;-67
2023/12/15 09:48:37;;;;;;;13.00;8.07;;;;;;;;;;5058682;28;20529;-68
2023/12/15 09:51:07;;;;;;;14.25;6.13;;;;;;;;;;5058235;28;20037;-67
2023/12/15 09:53:38;;;;;;;13.18;7.57;;;;;;;;;;5057661;28;20051;-68
2023/12/15 09:56:05;;;;;;;12.05;6.70;;;;;;;;;;5057455;28;20079;-66
2023/12/15 09:58:30;;;;;;;14.18;7.53;;;;;;;;;;5058151;28;20075;-66
2023/12/15 10:00:56;;;;;;;13.00;7.28;;;;;;;;;;5057937;28;20079;-68
2023/12/15 10:03:22;;;;;;;11.48;6.30;;;;;;;;;;5057251;28;20102;-68
2023/12/15 10:05:47;;;;;;;15.80;6.07;;;;;;;;;;5057078;28;20097;-66
2023/12/15 10:08:13;;;;;;;15.25;7.65;;;;;;;;;;5058106;28;20051;-67
2023/12/15 10:10:38;;;;;;;11.85;6.95;;;;;;;;;;5058329;28;20039;-67
2023/12/15 10:13:04;;;;;;;11.15;6.90;;;;;;;;;;5038797;28;20043;-66
2023/12/15 10:15:29;;;;;;;9.90;6.03;;;;;;;;;;5057801;28;20490;-68
2023/12/15 10:17:55;;;;;;;14.10;7.65;;;;;;;;;;5038929;28;20041;-67
2023/12/15 10:20:20;;;;;;;12.43;7.13;;;;;;;;;;5058268;28;20047;-67
2023/12/15 10:22:47;;;;;;;16.05;7.60;;;;;;;;;;5057705;28;20040;-67
2023/12/15 10:25:22;;;;;;;10.77;7.28;;;;;;;;;;5057992;28;20056;-66
2023/12/15 10:27:49;;;;;;;12.68;6.82;;;;;;;;;;5057015;28;20052;-67
2023/12/15 10:30:18;;;;;;;13.02;6.63;;;;;;;;;;5057702;28;20220;-68
2023/12/15 10:32:44;;;;;;;10.32;6.43;;;;;;;;;;5038870;28;20115;-67
2023/12/15 10:35:10;;;;;;;11.98;6.47;;;;;;;;;;5018951;28;20080;-69
2023/12/15 10:37:41;;;;;;;8.82;5.43;;;;;;;;;;5022353;28;20045;-69
2023/12/15 10:40:07;;;;;;;5.93;3.97;;;;;;;;;;5019418;28;20476;-68
2023/12/15 10:42:34;;;;;;;6.43;4.43;;;;;;;;;;5021819;28;21153;-68
2023/12/15 10:45:04;;;;;;;8.82;3.55;;;;;;;;;;5018582;28;20504;-68
2023/12/15 10:47:31;;;;;;;5.10;3.45;;;;;;;;;;5018232;28;20041;-68
2023/12/15 10:49:57;;;;;;;7.28;4.75;;;;;;;;;;5019993;28;20045;-67
2023/12/15 10:52:24;;;;;;;6.32;3.65;;;;;;;;;;5018588;28;20052;-67
2023/12/15 10:54:52;;;;;;;8.57;4.55;;;;;;;;;;5021507;28;20045;-68
2023/12/15 10:57:19;;;;;;;5.38;3.40;;;;;;;;;;5021121;28;20048;-68
2023/12/15 10:59:45;;;;;;;7.38;4.18;;;;;;;;;;5021565;28;20520;-65
2023/12/15 11:02:14;;;;;;;7.53;4.65;;;;;;;;;;5023279;28;20034;-69
2023/12/15 11:04:39;;;;;;;7.75;4.85;;;;;;;;;;5021898;28;20052;-66
2023/12/15 11:07:06;;;;;;;6.18;4.03;;;;;;;;;;5025688;28;20049;-66
2023/12/15 11:09:35;;;;;;;6.68;4.63;;;;;;;;;;5021197;28;20086;-68
2023/12/15 11:12:37;;;;;;;7.90;3.70;;;;;;;;;;5022545;28;20064;-68
2023/12/15 11:15:13;;;;;;;6.75;3.47;;;;;;;;;;4975050;28;20082;-69
2023/12/15 11:17:43;;;;;;;7.50;4.88;;;;;;;;;;5001846;28;20128;-68
2023/12/15 11:20:31;;;;;;;7.53;4.47;;;;;;;;;;5044230;28;20040;-67
2023/12/15 11:22:56;;;;;;;5.35;4.20;;;;;;;;;;5055941;28;20052;-67
2023/12/15 11:25:26;;;;;;;12.27;5.07;;;;;;;;;;5056542;28;20063;-67
2023/12/15 11:28:01;;;;;;;8.93;4.93;;;;;;;;;;5057115;28;20106;-66
2023/12/15 11:30:28;;;;;;;5.07;3.78;;;;;;;;;;5057120;28;20540;-67
2023/12/15 11:32:55;;;;;;;7.63;4.47;;;;;;;;;;5056790;28;20129;-66
2023/12/15 11:35:33;;;;;;;7.18;4.45;;;;;;;;;;5055928;28;20032;-67
2023/12/15 11:37:58;;;;;;;4.07;3.22;;;;;;;;;;5056930;28;20063;-68
2023/12/15 11:40:30;;;;;;;6.53;4.63;;;;;;;;;;5057018;28;20414;-67
2023/12/15 11:42:56;;;;;;;6.32;4.47;;;;;;;;;;5056544;28;20059;-67
2023/12/15 11:45:26;;;;;;;5.22;3.35;;;;;;;;;;5055651;28;20049;-68
2023/12/15 11:47:53;;;;;;;4.55;3.20;;;;;;;;;;5056953;28;20143;-67
2023/12/15 11:50:19;;;;;;;7.05;4.82;;;;;;;;;;5058041;28;20496;-68
2023/12/15 11:52:45;;;;;;;10.63;5.72;;;;;;;;;;5056905;28;20124;-68
2023/12/15 11:55:11;;;;;;;7.68;4.38;;;;;;;;;;5056174;28;20051;-68
2023/12/15 11:57:37;;;;;;;6.78;4.13;;;;;;;;;;5056271;28;20083;-68
2023/12/15 12:00:03;;;;;;;5.38;4.07;;;;;;;;;;5056758;28;20147;-68
2023/12/15 12:02:30;;;;;;;8.40;4.72;;;;;;;;;;5039496;28;20040;-68
2023/12/15 12:04:57;;;;;;;9.55;5.85;;;;;;;;;;5056227;28;20044;-67
2023/12/15 12:07:23;;;;;;;26.17;12.07;;;;;;;;;;5055383;28;20044;-69
2023/12/15 12:09:49;;;;;;;5.38;3.53;;;;;;;;;;5056937;28;20044;-68
2023/12/15 12:12:14;;;;;;;17.75;10.30;;;;;;;;;;5056106;28;20037;-66
2023/12/15 12:14:41;;;;;;;7.07;5.05;;;;;;;;;;5056667;28;20687;-69
2023/12/15 12:17:09;;;;;;;7.22;4.35;;;;;;;;;;5038328;28;20100;-68
2023/12/15 12:19:40;;;;;;;5.93;4.32;;;;;;;;;;5055868;28;20063;-67
2023/12/15 12:22:09;;;;;;;5.80;3.88;;;;;;;;;;5055974;28;20041;-68
2023/12/15 12:24:35;;;;;;;6.68;4.75;;;;;;;;;;5056561;28;20041;-66
2023/12/15 12:27:00;;;;;;;6.10;4.32;;;;;;;;;;5058307;28;20056;-68
2023/12/15 12:29:30;;;;;;;6.35;4.68;;;;;;;;;;5058513;28;20401;-66
2023/12/15 12:31:55;;;;;;;8.98;4.45;;;;;;;;;;5059671;28;21112;-66
2023/12/15 12:34:21;;;;;;;7.57;5.10;;;;;;;;;;5059770;28;20055;-69
2023/12/15 12:36:46;;;;;;;7.10;4.70;;;;;;;;;;5060055;28;20455;-67
2023/12/15 12:39:11;;;;;;;7.63;4.85;;;;;;;;;;5057333;28;20060;-67
2023/12/15 12:41:37;;;;;;;6.55;3.83;;;;;;;;;;5059768;28;20066;-66
2023/12/15 12:44:03;;;;;;;7.85;4.30;;;;;;;;;;5058851;28;20048;-69
2023/12/15 12:46:28;;;;;;;6.90;4.15;;;;;;;;;;5059282;28;20049;-67
2023/12/15 12:48:54;;;;;;;5.45;3.80;;;;;;;;;;5059438;28;20051;-66
2023/12/15 12:51:19;;;;;;;5.32;4.15;;;;;;;;;;5058220;28;20654;-70
2023/12/15 12:53:45;;;;;;;7.30;4.68;;;;;;;;;;5057084;28;21006;-69
2023/12/15 12:56:12;;;;;;;11.10;4.80;;;;;;;;;;5028394;28;20045;-67
2023/12/15 12:58:37;;;;;;;6.63;4.38;;;;;;;;;;5034129;28;20053;-69
2023/12/15 13:01:03;;;;;;;5.47;3.83;;;;;;;;;;5024953;28;20041;-67
2023/12/15 13:03:28;;;;;;;5.63;4.55;;;;;;;;;;5019936;28;20049;-67
2023/12/15 13:05:55;;;;;;;5.68;3.72;;;;;;;;;;5018609;28;20052;-68
2023/12/15 13:08:20;;;;;;;6.90;2.33;;;;;;;;;;5026644;28;20044;-68
2023/12/15 13:10:45;;;;;;;6.18;4.00;;;;;;;;;;5028270;28;20095;-69
2023/12/15 13:13:12;;;;;;;5.57;3.80;;;;;;;;;;5017849;28;20189;-67
2023/12/15 13:15:38;;;;;;;6.03;4.00;;;;;;;;;;5002286;28;20052;-69
2023/12/15 13:18:03;;;;;;;8.35;4.63;;;;;;;;;;5023394;28;20052;-68
2023/12/15 13:20:28;;;;;;;6.57;4.00;;;;;;;;;;5028779;28;20399;-69
2023/12/15 13:22:54;;;;;;;6.57;3.83;;;;;;;;;;5018555;28;20527;-69
2023/12/15 13:25:19;;;;;;;6.10;4.43;;;;;;;;;;5018699;28;20104;-69
2023/12/15 13:27:44;;;;;;;7.05;4.38;;;;;;;;;;5014259;28;20060;-68
2023/12/15 13:30:11;;;;;;;4.78;3.60;;;;;;;;;;5023812;28;20029;-69
2023/12/15 13:32:36;;;;;;;6.45;4.32;;;;;;;;;;5035762;28;20056;-69
2023/12/15 13:35:02;;;;;;;5.22;3.30;;;;;;;;;;5037887;28;20041;-68
2023/12/15 13:37:29;;;;;;;5.95;3.63;;;;;;;;;;5036731;28;20037;-70
2023/12/15 13:39:55;;;;;;;4.72;3.53;;;;;;;;;;5019827;28;20054;-67
2023/12/15 13:42:20;;;;;;;5.93;3.78;;;;;;;;;;5025893;28;20075;-69
2023/12/15 13:44:46;;;;;;;5.18;3.80;;;;;;;;;;5041536;28;20567;-67
2023/12/15 13:47:11;;;;;;;7.32;4.25;;;;;;;;;;5039638;28;20049;-69
2023/12/15 13:49:36;;;;;;;6.50;3.60;;;;;;;;;;5038832;28;20275;-67
2023/12/15 13:52:02;;;;;;;6.15;4.20;;;;;;;;;;5037878;28;20126;-66
2023/12/15 13:54:28;;;;;;;8.52;3.83;;;;;;;;;;5045527;28;20052;-66
2023/12/15 13:57:00;;;;;;;4.55;3.30;;;;;;;;;;5038883;28;20046;-68
2023/12/15 13:59:31;;;;;;;4.32;3.10;;;;;;;;;;5040291;28;20135;-68
2023/12/15 14:01:57;;;;;;;5.85;3.42;;;;;;;;;;5038657;28;20049;-69
2023/12/15 14:04:22;;;;;;;3.80;3.38;;;;;;;;;;5038158;28;20049;-69
2023/12/15 14:06:50;;;;;;;3.85;3.13;;;;;;;;;;5038387;28;20076;-67
2023/12/15 14:09:16;;;;;;;5.03;3.08;;;;;;;;;;5036467;28;20045;-69
2023/12/15 14:11:42;;;;;;;4.47;3.42;;;;;;;;;;5038583;28;20131;-69
2023/12/15 14:14:08;;;;;;;4.82;3.47;;;;;;;;;;5037992;28;20079;-69
2023/12/15 14:16:34;;;;;;;5.50;3.42;;;;;;;;;;5038806;28;20044;-68
2023/12/15 14:19:00;;;;;;;4.20;3.25;;;;;;;;;;5038063;28;20041;-68
2023/12/15 14:21:26;;;;;;;6.50;3.40;;;;;;;;;;5030438;28;20629;-69
2023/12/15 14:24:00;;;;;;;5.30;3.47;;;;;;;;;;5038890;28;20340;-70
2023/12/15 14:26:25;;;;;;;4.00;3.13;;;;;;;;;;5038269;28;20226;-69
2023/12/15 14:28:51;;;;;;;3.85;3.10;;;;;;;;;;5056647;28;20037;-69
2023/12/15 14:31:20;;;;;;;4.88;3.17;;;;;;;;;;5038079;28;20045;-69
2023/12/15 14:33:45;;;;;;;5.75;3.38;;;;;;;;;;5039031;28;20062;-70